createdAt,value
2018-11-21T00:00:18.158Z,1.17
2018-11-21T00:02:47.128Z,2.53
2018-11-21T00:05:16.118Z,4.93
2018-11-21T00:07:45.154Z,6.03
2018-11-21T00:10:14.653Z,7.10
2018-11-21T00:12:49.128Z,7.72
2018-11-21T00:15:17.942Z,11.28
2018-11-21T00:17:46.934Z,7.00
2018-11-21T00:20:15.812Z,7.87
2018-11-21T00:22:44.705Z,5.30
2018-11-21T00:25:13.889Z,5.70
2018-11-21T00:27:42.902Z,5.95
2018-11-21T00:30:15.681Z,5.13
2018-11-21T00:32:44.811Z,5.00
2018-11-21T00:35:13.663Z,4.83
2018-11-21T00:37:42.562Z,4.57
2018-11-21T00:40:13.174Z,3.70
2018-11-21T00:42:46.670Z,4.33
2018-11-21T00:45:11.498Z,4.03
2018-11-21T00:47:40.934Z,3.97
2018-11-21T00:50:09.910Z,3.98
2018-11-21T00:52:38.811Z,3.73
2018-11-21T00:55:08.040Z,3.97
2018-11-21T00:57:36.870Z,4.23
2018-11-21T01:00:07.826Z,5.40
2018-11-21T01:02:36.864Z,5.30
2018-11-21T01:05:06.323Z,7.27
2018-11-21T01:07:35.205Z,6.92
2018-11-21T01:10:04.471Z,7.23
2018-11-21T01:12:33.404Z,6.57
2018-11-21T01:15:02.404Z,6.67
2018-11-21T01:17:31.343Z,5.80
2018-11-21T01:20:00.172Z,3.47
2018-11-21T01:22:29.077Z,4.10
2018-11-21T01:24:58.112Z,3.72
2018-11-21T01:27:27.363Z,3.20
2018-11-21T01:29:56.055Z,3.07
2018-11-21T01:32:25.176Z,3.97
2018-11-21T01:34:54.152Z,1.80
2018-11-21T01:37:23.147Z,1.63
2018-11-21T01:39:52.141Z,1.03
2018-11-21T01:42:20.976Z,0.72
2018-11-21T01:44:49.816Z,0.88
2018-11-21T01:47:19.014Z,0.83
2018-11-21T01:49:47.902Z,0.50
2018-11-21T01:52:16.788Z,0.50
2018-11-21T01:54:45.984Z,0.42
2018-11-21T01:57:14.999Z,0.28
2018-11-21T01:59:44.809Z,0.20
2018-11-21T02:02:13.952Z,0.30
2018-11-21T02:04:42.902Z,0.50
2018-11-21T02:07:11.808Z,0.30
2018-11-21T02:09:41.011Z,0.30
2018-11-21T02:12:09.875Z,0.30
2018-11-21T02:14:38.878Z,0.42
2018-11-21T02:17:07.921Z,0.50
2018-11-21T02:19:36.863Z,0.62
2018-11-21T02:22:05.760Z,0.30
2018-11-21T02:24:34.986Z,3.22
2018-11-21T02:27:03.991Z,0.50
2018-11-21T02:29:32.950Z,0.60
2018-11-21T02:32:02.201Z,0.55
2018-11-21T02:34:31.131Z,1.07
2018-11-21T02:37:00.033Z,1.00
2018-11-21T02:39:29.360Z,0.57
2018-11-21T02:41:58.350Z,0.70
2018-11-21T02:44:27.315Z,0.45
2018-11-21T02:46:56.459Z,0.50
2018-11-21T02:49:25.421Z,0.80
2018-11-21T02:51:54.413Z,1.50
2018-11-21T02:54:23.736Z,0.68
2018-11-21T02:57:21.805Z,0.72
2018-11-21T02:59:52.561Z,0.90
2018-11-21T03:02:21.620Z,0.70
2018-11-21T03:04:50.531Z,0.57
2018-11-21T03:07:19.443Z,1.50
2018-11-21T03:09:48.393Z,0.85
2018-11-21T03:12:17.280Z,0.60
2018-11-21T03:14:46.377Z,0.70
2018-11-21T03:17:15.428Z,0.90
2018-11-21T03:19:44.272Z,1.50
2018-11-21T03:22:13.151Z,1.37
2018-11-21T03:24:42.385Z,0.85
2018-11-21T03:27:11.362Z,1.20
2018-11-21T03:29:40.249Z,1.30
2018-11-21T03:32:09.477Z,1.37
2018-11-21T03:34:38.432Z,0.60
2018-11-21T03:37:07.447Z,1.25
2018-11-21T03:39:36.667Z,0.95
2018-11-21T03:42:05.938Z,1.20
2018-11-21T03:44:34.938Z,0.73
2018-11-21T03:47:03.973Z,0.70
2018-11-21T03:49:32.810Z,1.00
2018-11-21T03:52:01.827Z,0.80
2018-11-21T03:54:30.729Z,0.70
2018-11-21T03:56:59.584Z,0.72
2018-11-21T03:59:28.589Z,0.60
2018-11-21T04:01:57.843Z,0.77
2018-11-21T04:04:26.792Z,1.12
2018-11-21T04:06:55.563Z,0.70
2018-11-21T04:09:24.834Z,0.70
2018-11-21T04:11:54.569Z,0.60
2018-11-21T04:14:22.765Z,0.60
2018-11-21T04:16:51.910Z,0.82
2018-11-21T04:19:20.853Z,0.60
2018-11-21T04:21:49.848Z,0.70
2018-11-21T04:24:18.985Z,1.05
2018-11-21T04:26:47.843Z,2.05
2018-11-21T04:29:16.833Z,0.50
2018-11-21T04:31:46.018Z,1.07
2018-11-21T04:34:14.930Z,0.70
2018-11-21T04:36:43.816Z,1.13
2018-11-21T04:39:13.340Z,0.70
2018-11-21T04:41:42.339Z,0.65
2018-11-21T04:44:11.330Z,1.67
2018-11-21T04:46:40.455Z,0.95
2018-11-21T04:49:09.403Z,0.85
2018-11-21T04:51:38.418Z,0.80
2018-11-21T04:54:07.647Z,2.50
2018-11-21T04:56:36.440Z,0.90
2018-11-21T04:59:05.436Z,0.72
2018-11-21T05:01:34.807Z,1.20
2018-11-21T05:04:03.674Z,1.17
2018-11-21T05:06:32.568Z,1.25
2018-11-21T05:09:01.898Z,1.40
2018-11-21T05:11:30.752Z,2.00
2018-11-21T05:13:59.961Z,2.08
2018-11-21T05:16:28.965Z,1.30
2018-11-21T05:18:57.925Z,0.98
2018-11-21T05:21:26.721Z,1.23
2018-11-21T05:23:55.540Z,2.05
2018-11-21T05:26:24.799Z,2.17
2018-11-21T05:28:53.710Z,4.67
2018-11-21T05:31:22.600Z,1.10
2018-11-21T05:33:51.792Z,1.75
2018-11-21T05:36:20.815Z,3.37
2018-11-21T05:38:49.693Z,2.55
2018-11-21T05:41:18.632Z,1.67
2018-11-21T05:43:47.600Z,1.62
2018-11-21T05:46:16.494Z,2.08
2018-11-21T05:48:45.591Z,2.02
2018-11-21T05:51:14.470Z,2.83
2018-11-21T05:53:43.354Z,1.20
2018-11-21T05:56:12.577Z,1.80
2018-11-21T05:58:41.559Z,2.12
2018-11-21T06:01:10.552Z,1.57
2018-11-21T06:03:39.642Z,2.22
2018-11-21T06:06:10.042Z,1.70
2018-11-21T06:08:37.529Z,1.15
2018-11-21T06:11:06.790Z,2.47
2018-11-21T06:13:35.731Z,1.50
2018-11-21T06:16:04.518Z,2.30
2018-11-21T06:18:33.720Z,1.98
2018-11-21T06:21:02.710Z,1.70
2018-11-21T06:23:31.587Z,1.30
2018-11-21T06:26:00.491Z,0.90
2018-11-21T06:28:29.483Z,1.32
2018-11-21T06:30:58.370Z,0.90
2018-11-21T06:33:27.654Z,0.80
2018-11-21T06:35:56.683Z,1.12
2018-11-21T06:38:25.573Z,1.40
2018-11-21T06:40:54.466Z,0.95
2018-11-21T06:43:23.455Z,0.93
2018-11-21T06:45:52.451Z,1.57
2018-11-21T06:48:21.560Z,0.85
2018-11-21T06:50:50.431Z,1.70
2018-11-21T06:53:19.434Z,1.72
2018-11-21T06:55:48.748Z,0.40
2018-11-21T06:58:17.645Z,1.25
2018-11-21T07:00:46.498Z,1.57
2018-11-21T07:03:15.694Z,1.30
2018-11-21T07:05:44.622Z,1.45
2018-11-21T07:08:13.392Z,3.00
2018-11-21T07:10:42.397Z,3.27
2018-11-21T07:13:11.329Z,4.33
2018-11-21T07:15:40.157Z,1.52
2018-11-21T07:18:09.441Z,3.60
2018-11-21T07:20:38.512Z,6.55
2018-11-21T07:23:07.357Z,7.25
2018-11-21T07:25:36.509Z,9.18
2018-11-21T07:28:05.463Z,6.80
2018-11-21T07:30:34.451Z,5.75
2018-11-21T07:33:03.557Z,5.35
2018-11-21T07:35:32.429Z,7.58
2018-11-21T07:38:01.426Z,5.50
2018-11-21T07:40:30.654Z,4.20
2018-11-21T07:42:59.522Z,5.65
2018-11-21T07:45:28.399Z,6.12
2018-11-21T07:47:57.581Z,4.65
2018-11-21T07:50:26.496Z,5.50
2018-11-21T07:52:55.507Z,4.70
2018-11-21T07:55:24.714Z,6.12
2018-11-21T07:57:58.728Z,4.45
2018-11-21T08:01:04.492Z,2.95
2018-11-21T08:03:38.103Z,3.20
2018-11-21T08:06:09.854Z,4.22
2018-11-21T08:08:56.372Z,3.37
2018-11-21T08:11:42.045Z,4.72
2018-11-21T08:14:28.427Z,4.25
2018-11-21T08:17:22.751Z,5.85
2018-11-21T08:20:19.790Z,5.25
2018-11-21T08:23:06.504Z,3.70
2018-11-21T08:25:46.890Z,3.35
2018-11-21T08:28:23.552Z,7.33
2018-11-21T08:30:52.396Z,5.67
2018-11-21T08:33:21.400Z,6.60
2018-11-21T08:35:59.140Z,9.85
2018-11-21T08:38:28.781Z,5.25
2018-11-21T08:40:57.773Z,10.15
2018-11-21T08:43:26.779Z,11.75
2018-11-21T08:45:56.277Z,9.55
2018-11-21T08:48:27.207Z,12.27
2018-11-21T08:50:56.202Z,14.03
2018-11-21T08:53:25.198Z,15.13
2018-11-21T08:55:54.413Z,15.95
2018-11-21T08:58:23.284Z,12.73
2018-11-21T09:00:52.383Z,17.70
2018-11-21T09:03:21.555Z,12.30
2018-11-21T09:05:50.357Z,12.43
2018-11-21T09:08:19.246Z,14.93
2018-11-21T09:10:48.484Z,10.35
2018-11-21T09:13:17.332Z,12.65
2018-11-21T09:15:46.356Z,14.23
2018-11-21T09:18:15.589Z,6.65
2018-11-21T09:20:44.424Z,9.63
2018-11-21T09:23:13.314Z,10.88
2018-11-21T09:25:42.369Z,15.63
2018-11-21T09:28:11.325Z,21.65
2018-11-21T09:30:40.207Z,12.68
2018-11-21T09:33:09.223Z,22.90
2018-11-21T09:35:38.219Z,16.25
2018-11-21T09:38:06.801Z,16.42
2018-11-21T09:40:35.865Z,19.43
2018-11-21T09:43:04.774Z,8.43
2018-11-21T09:45:33.683Z,11.17
2018-11-21T09:48:02.706Z,11.63
2018-11-21T09:50:32.822Z,9.53
2018-11-21T09:53:01.674Z,11.17
2018-11-21T09:55:30.943Z,16.60
2018-11-21T09:57:59.876Z,14.70
2018-11-21T10:01:05.169Z,17.67
2018-11-21T10:03:35.600Z,16.80
2018-11-21T10:06:26.927Z,29.30
2018-11-21T10:08:57.735Z,25.53
2018-11-21T10:11:26.706Z,20.83
2018-11-21T10:13:56.159Z,18.87
2018-11-21T10:16:24.954Z,17.00
2018-11-21T10:18:55.664Z,21.23
2018-11-21T10:21:26.263Z,19.07
2018-11-21T10:23:55.138Z,17.80
2018-11-21T10:26:24.060Z,24.67
2018-11-21T10:28:53.768Z,71.37
2018-11-21T10:31:22.638Z,59.10
2018-11-21T10:33:51.678Z,66.77
2018-11-21T10:36:20.853Z,57.87
2018-11-21T10:38:49.724Z,37.93
2018-11-21T10:41:18.723Z,43.53
2018-11-21T10:43:47.760Z,47.98
2018-11-21T10:46:16.608Z,36.40
2018-11-21T10:48:45.516Z,43.68
2018-11-21T10:51:15.146Z,41.47
2018-11-21T10:53:43.810Z,49.83
2018-11-21T10:56:12.684Z,34.37
2018-11-21T10:58:41.906Z,40.07
2018-11-21T11:01:28.186Z,35.43
2018-11-21T11:04:02.949Z,56.80
2018-11-21T11:06:49.487Z,49.70
2018-11-21T11:09:34.613Z,53.07
2018-11-21T11:12:21.870Z,50.43
2018-11-21T11:15:08.858Z,50.80
2018-11-21T11:17:59.477Z,45.90
2018-11-21T11:20:49.075Z,37.20
2018-11-21T11:23:36.975Z,48.60
2018-11-21T11:26:28.299Z,38.67
2018-11-21T11:29:25.054Z,144.17
2018-11-21T11:32:09.685Z,37.42
2018-11-21T11:35:12.586Z,47.47
2018-11-21T11:37:59.244Z,37.60
2018-11-21T11:41:02.362Z,39.57
2018-11-21T11:43:48.892Z,37.97
2018-11-21T11:46:28.167Z,38.28
2018-11-21T11:49:34.600Z,38.83
2018-11-21T11:52:37.504Z,38.17
2018-11-21T11:55:25.444Z,35.35
2018-11-21T11:58:15.023Z,33.07
2018-11-21T12:01:02.877Z,34.33
2018-11-21T12:03:49.870Z,35.50
2018-11-21T12:06:37.594Z,32.40
2018-11-21T12:09:33.797Z,32.33
2018-11-21T12:12:27.523Z,29.53
2018-11-21T12:15:15.428Z,29.87
2018-11-21T12:18:06.549Z,29.20
2018-11-21T12:20:53.447Z,37.75
2018-11-21T12:23:39.966Z,120.33
2018-11-21T12:26:17.986Z,106.17
2018-11-21T12:29:05.811Z,82.37
2018-11-21T12:32:08.796Z,50.80
2018-11-21T12:34:56.636Z,35.40
2018-11-21T12:37:43.320Z,58.63
2018-11-21T12:40:34.165Z,26.87
2018-11-21T12:43:34.274Z,33.70
2018-11-21T12:46:20.864Z,27.35
2018-11-21T12:49:23.872Z,20.47
2018-11-21T12:52:11.808Z,15.47
2018-11-21T12:54:58.951Z,14.27
2018-11-21T12:57:56.836Z,16.93
2018-11-21T13:00:56.945Z,26.10
2018-11-21T13:03:43.378Z,26.63
2018-11-21T13:06:37.123Z,12.43
2018-11-21T13:09:28.011Z,17.10
2018-11-21T13:12:34.257Z,16.07
2018-11-21T13:15:20.732Z,24.63
2018-11-21T13:18:11.699Z,30.67
2018-11-21T13:21:05.763Z,25.37
2018-11-21T13:24:08.826Z,23.30
2018-11-21T13:27:02.632Z,14.37
2018-11-21T13:29:42.377Z,12.67
2018-11-21T13:32:39.133Z,14.10
2018-11-21T13:35:32.986Z,9.03
2018-11-21T13:38:30.264Z,19.03
2018-11-21T13:41:19.047Z,15.73
2018-11-21T13:44:05.699Z,13.33
2018-11-21T13:46:52.208Z,21.23
2018-11-21T13:49:30.232Z,8.73
2018-11-21T13:52:33.025Z,11.13
2018-11-21T13:55:03.550Z,16.80
2018-11-21T13:57:32.853Z,14.50
2018-11-21T14:00:02.049Z,23.93
2018-11-21T14:02:31.343Z,16.57
2018-11-21T14:05:00.335Z,15.00
2018-11-21T14:07:29.394Z,13.27
2018-11-21T14:09:58.450Z,13.57
2018-11-21T14:12:27.421Z,17.13
2018-11-21T14:14:56.319Z,14.37
2018-11-21T14:17:27.775Z,19.33
2018-11-21T14:19:54.405Z,14.83
2018-11-21T14:22:23.487Z,23.37
2018-11-21T14:24:52.275Z,16.33
2018-11-21T14:27:21.298Z,20.83
2018-11-21T14:29:50.323Z,15.97
2018-11-21T14:32:19.274Z,17.93
2018-11-21T14:34:48.181Z,16.53
2018-11-21T14:37:17.488Z,23.53
2018-11-21T14:39:46.463Z,19.83
2018-11-21T14:42:15.343Z,19.30
2018-11-21T14:44:44.274Z,17.50
2018-11-21T14:47:15.119Z,15.13
2018-11-21T14:49:46.139Z,16.87
2018-11-21T14:52:15.474Z,15.57
2018-11-21T14:54:44.440Z,22.97
2018-11-21T14:57:13.272Z,24.17
2018-11-21T14:59:42.219Z,12.97
2018-11-21T15:02:11.209Z,10.73
2018-11-21T15:04:40.206Z,8.00
2018-11-21T15:07:09.338Z,12.67
2018-11-21T15:09:38.174Z,9.60
2018-11-21T15:12:07.173Z,8.53
2018-11-21T15:14:36.214Z,12.13
2018-11-21T15:17:05.361Z,21.67
2018-11-21T15:19:35.291Z,11.13
2018-11-21T15:22:04.502Z,10.33
2018-11-21T15:24:33.478Z,7.93
2018-11-21T15:27:02.377Z,14.80
2018-11-21T15:29:31.441Z,13.83
2018-11-21T15:32:00.366Z,12.60
2018-11-21T15:34:29.354Z,7.27
2018-11-21T15:36:58.287Z,5.47
2018-11-21T15:39:27.116Z,4.33
2018-11-21T15:41:56.128Z,5.33
2018-11-21T15:44:25.366Z,5.20
2018-11-21T15:46:54.221Z,6.67
2018-11-21T15:49:23.105Z,11.17
2018-11-21T15:51:52.295Z,12.17
2018-11-21T15:54:21.317Z,12.40
2018-11-21T15:56:50.207Z,11.17
2018-11-21T15:59:19.745Z,15.93
2018-11-21T16:01:48.709Z,12.00
2018-11-21T16:04:17.823Z,10.20
2018-11-21T16:06:46.909Z,13.57
2018-11-21T16:09:15.786Z,17.30
2018-11-21T16:11:44.787Z,12.87
2018-11-21T16:14:13.643Z,19.03
2018-11-21T16:16:42.568Z,18.75
2018-11-21T16:19:11.575Z,18.80
2018-11-21T16:21:40.715Z,132.27
2018-11-21T16:24:09.560Z,32.67
2018-11-21T16:26:38.557Z,25.23
2018-11-21T16:29:07.584Z,32.27
2018-11-21T16:31:36.531Z,37.80
2018-11-21T16:34:05.530Z,54.40
2018-11-21T16:36:34.732Z,68.10
2018-11-21T16:39:04.293Z,74.53
2018-11-21T16:41:33.119Z,81.50
2018-11-21T16:44:02.351Z,67.87
2018-11-21T16:46:31.324Z,52.63
2018-11-21T16:49:00.314Z,50.97
2018-11-21T16:51:29.638Z,44.37
2018-11-21T16:53:58.761Z,36.53
2018-11-21T16:56:27.701Z,28.13
2018-11-21T16:58:56.750Z,22.17
2018-11-21T17:01:25.695Z,19.80
2018-11-21T17:03:54.686Z,20.87
2018-11-21T17:06:23.659Z,19.13
2018-11-21T17:08:52.531Z,11.23
2018-11-21T17:11:21.465Z,8.37
2018-11-21T17:13:50.801Z,9.20
2018-11-21T17:16:19.656Z,11.87
2018-11-21T17:18:48.543Z,8.73
2018-11-21T17:21:17.481Z,7.77
2018-11-21T17:23:46.763Z,10.77
2018-11-21T17:26:15.683Z,10.80
2018-11-21T17:28:44.538Z,14.07
2018-11-21T17:31:13.742Z,12.07
2018-11-21T17:33:42.823Z,5.93
2018-11-21T17:36:11.830Z,10.30
2018-11-21T17:38:41.012Z,10.07
2018-11-21T17:41:09.910Z,9.60
2018-11-21T17:43:38.800Z,8.87
2018-11-21T17:46:08.447Z,8.47
2018-11-21T17:48:37.432Z,9.77
2018-11-21T17:51:06.282Z,9.37
2018-11-21T17:53:35.431Z,10.53
2018-11-21T17:56:04.313Z,12.63
2018-11-21T17:58:33.275Z,13.33
2018-11-21T18:01:02.175Z,16.63
2018-11-21T18:03:31.070Z,19.17
2018-11-21T18:06:00.135Z,12.70
2018-11-21T18:08:29.186Z,14.33
2018-11-21T18:10:58.048Z,13.30
2018-11-21T18:13:27.385Z,13.53
2018-11-21T18:15:56.368Z,11.70
2018-11-21T18:18:25.219Z,11.40
2018-11-21T18:20:54.491Z,12.20
2018-11-21T18:23:23.346Z,13.77
2018-11-21T18:25:52.209Z,10.53
2018-11-21T18:28:21.141Z,9.47
2018-11-21T18:30:50.122Z,10.43
2018-11-21T18:33:19.129Z,13.30
2018-11-21T18:35:48.267Z,10.10
2018-11-21T18:38:17.085Z,8.10
2018-11-21T18:40:46.098Z,20.93
2018-11-21T18:43:15.123Z,13.97
2018-11-21T18:45:45.212Z,10.50
2018-11-21T18:48:14.260Z,12.07
2018-11-21T18:50:43.382Z,9.57
2018-11-21T18:53:12.701Z,3.00
2018-11-21T18:56:30.477Z,7.47
2018-11-21T18:59:47.558Z,7.23
2018-11-21T19:02:16.630Z,11.03
2018-11-21T19:04:45.552Z,17.93
2018-11-21T19:07:14.537Z,14.57
2018-11-21T19:09:43.721Z,7.80
2018-11-21T19:12:12.623Z,11.00
2018-11-21T19:14:41.474Z,3.03
2018-11-21T19:17:10.516Z,2.07
2018-11-21T19:19:39.582Z,1.30
2018-11-21T19:22:08.461Z,3.40
2018-11-21T19:24:37.555Z,3.53
2018-11-21T19:27:06.651Z,3.77
2018-11-21T19:29:35.652Z,3.00
2018-11-21T19:32:04.888Z,3.37
2018-11-21T19:34:33.775Z,3.37
2018-11-21T19:37:02.617Z,4.67
2018-11-21T19:39:31.722Z,3.37
2018-11-21T19:42:00.756Z,5.63
2018-11-21T19:44:29.720Z,7.40
2018-11-21T19:46:58.628Z,6.37
2018-11-21T19:49:33.176Z,6.10
2018-11-21T19:51:56.397Z,6.57
2018-11-21T19:54:25.724Z,11.00
2018-11-21T19:56:54.697Z,11.20
2018-11-21T19:59:23.475Z,12.00
2018-11-21T20:01:52.429Z,15.47
2018-11-21T20:04:21.469Z,14.20
2018-11-21T20:06:50.377Z,27.27
2018-11-21T20:09:19.436Z,24.77
2018-11-21T20:11:48.446Z,12.77
2018-11-21T20:14:17.339Z,12.77
2018-11-21T20:16:46.511Z,18.53
2018-11-21T20:19:15.543Z,7.40
2018-11-21T20:21:44.415Z,6.80
2018-11-21T20:24:13.589Z,7.37
2018-11-21T20:26:42.737Z,5.17
2018-11-21T20:29:11.713Z,3.83
2018-11-21T20:31:40.611Z,4.57
2018-11-21T20:34:10.139Z,8.50
2018-11-21T20:36:39.252Z,4.87
2018-11-21T20:39:10.747Z,6.33
2018-11-21T20:41:40.186Z,2.37
2018-11-21T20:44:09.052Z,4.37
2018-11-21T20:46:38.056Z,2.80
2018-11-21T20:49:11.237Z,4.27
2018-11-21T20:51:36.437Z,4.50
2018-11-21T20:54:05.542Z,5.33
2018-11-21T20:56:34.401Z,7.53
2018-11-21T20:59:03.440Z,10.17
2018-11-21T21:01:32.416Z,8.27
2018-11-21T21:04:01.632Z,10.40
2018-11-21T21:06:30.547Z,7.17
2018-11-21T21:08:59.775Z,10.67
2018-11-21T21:11:28.723Z,5.67
2018-11-21T21:13:57.602Z,5.60
2018-11-21T21:16:26.577Z,7.53
2018-11-21T21:18:55.595Z,5.70
2018-11-21T21:21:24.477Z,9.17
2018-11-21T21:23:53.482Z,7.87
2018-11-21T21:26:22.478Z,8.63
2018-11-21T21:28:51.495Z,7.63
2018-11-21T21:31:20.388Z,7.73
2018-11-21T21:33:49.366Z,8.27
2018-11-21T21:36:18.244Z,12.03
2018-11-21T21:38:47.483Z,11.17
2018-11-21T21:41:16.454Z,11.43
2018-11-21T21:43:45.446Z,12.83
2018-11-21T21:46:14.360Z,11.37
2018-11-21T21:48:43.217Z,10.50
2018-11-21T21:51:12.231Z,12.87
2018-11-21T21:53:41.494Z,11.23
2018-11-21T21:56:10.407Z,10.87
2018-11-21T21:58:39.201Z,11.13
2018-11-21T22:01:08.239Z,18.17
2018-11-21T22:03:37.294Z,13.70
2018-11-21T22:06:06.443Z,15.33
2018-11-21T22:08:35.546Z,16.93
2018-11-21T22:11:04.480Z,16.53
2018-11-21T22:13:33.371Z,18.37
2018-11-21T22:16:02.649Z,19.93
2018-11-21T22:18:31.595Z,21.20
2018-11-21T22:21:00.451Z,20.70
2018-11-21T22:23:29.404Z,21.50
2018-11-21T22:25:58.351Z,22.70
2018-11-21T22:28:27.347Z,21.07
2018-11-21T22:30:56.717Z,17.73
2018-11-21T22:33:25.527Z,17.33
2018-11-21T22:35:58.305Z,15.87
2018-11-21T22:38:23.682Z,14.87
2018-11-21T22:40:52.617Z,11.30
2018-11-21T22:43:21.496Z,13.20
2018-11-21T22:45:50.520Z,15.00
2018-11-21T22:48:19.470Z,11.17
2018-11-21T22:50:48.292Z,11.00
2018-11-21T22:53:17.287Z,9.97
2018-11-21T22:55:46.174Z,6.90
2018-11-21T22:58:15.059Z,6.33
2018-11-21T23:00:45.572Z,7.23
2018-11-21T23:03:15.804Z,7.93
2018-11-21T23:05:44.701Z,9.27
2018-11-21T23:08:13.592Z,6.63
2018-11-21T23:10:42.776Z,7.70
2018-11-21T23:13:11.697Z,8.67
2018-11-21T23:15:40.898Z,6.77
2018-11-21T23:18:10.179Z,10.53
2018-11-21T23:20:39.195Z,6.17
2018-11-21T23:23:08.192Z,6.70
2018-11-21T23:25:37.396Z,5.90
2018-11-21T23:28:06.461Z,5.30
2018-11-21T23:30:35.465Z,6.33
2018-11-21T23:33:04.392Z,3.50
2018-11-21T23:35:33.364Z,3.43
2018-11-21T23:38:02.253Z,2.63
2018-11-21T23:40:31.057Z,3.10
2018-11-21T23:42:59.751Z,3.23
2018-11-21T23:45:28.720Z,3.97
2018-11-21T23:47:57.890Z,3.70
2018-11-21T23:50:26.808Z,4.07
2018-11-21T23:52:55.692Z,3.83
2018-11-21T23:55:24.534Z,3.77
2018-11-21T23:57:53.483Z,4.20
